Time;durP1;ratioP1;P1;durP2;ratioP2;P2;SDS_P1;SDS_P2;PMS_P1;PMS_P2;Temp;Humidity;BMP_temperature;BMP_pressure;BME280_temperature;BME280_humidity;BME280_pressure;Samples;Min_cycle;Max_cycle;Signal;HPM_P1;HPM_P2
2021/08/15 00:00:39;;;;;;;9.78;6.92;;;20.80;99.90;;;;;;1948805;74;21099;-76
2021/08/15 00:03:05;;;;;;;7.53;6.45;;;20.70;99.90;;;;;;1949122;73;21066;-77
2021/08/15 00:05:31;;;;;;;8.08;6.83;;;20.70;99.90;;;;;;1948900;74;21476;-77
2021/08/15 00:07:58;;;;;;;7.72;6.55;;;20.70;99.90;;;;;;1948899;74;21599;-77
2021/08/15 00:10:24;;;;;;;9.68;6.72;;;20.60;99.90;;;;;;1948806;74;21471;-77
2021/08/15 00:12:50;;;;;;;9.00;7.00;;;20.50;99.90;;;;;;1948912;73;21466;-75
2021/08/15 00:15:16;;;;;;;10.20;7.58;;;20.50;99.90;;;;;;1948816;74;21512;-76
2021/08/15 00:17:42;;;;;;;9.53;7.20;;;20.50;99.90;;;;;;1948983;74;21467;-76
2021/08/15 00:20:08;;;;;;;12.73;6.95;;;20.50;99.90;;;;;;1948737;73;21622;-75
2021/08/15 00:22:34;;;;;;;8.48;6.95;;;20.40;99.90;;;;;;1948893;72;21024;-75
2021/08/15 00:25:00;;;;;;;7.55;6.75;;;20.40;99.90;;;;;;1948737;74;21096;-75
2021/08/15 00:27:26;;;;;;;7.83;6.58;;;20.30;99.90;;;;;;1948880;74;21058;-77
2021/08/15 00:29:53;;;;;;;7.53;6.60;;;20.30;99.90;;;;;;1948684;74;21092;-77
2021/08/15 00:32:19;;;;;;;9.23;7.00;;;20.30;99.90;;;;;;1948909;74;21036;-77
2021/08/15 00:34:45;;;;;;;11.28;6.60;;;20.30;99.90;;;;;;1948787;72;21092;-77
2021/08/15 00:37:11;;;;;;;8.18;6.70;;;20.30;99.90;;;;;;1948756;74;21063;-77
2021/08/15 00:39:37;;;;;;;12.10;6.40;;;20.30;99.90;;;;;;1948965;74;21066;-77
2021/08/15 00:42:03;;;;;;;8.83;6.33;;;20.20;99.90;;;;;;1929656;73;21061;-77
2021/08/15 00:44:29;;;;;;;11.95;8.10;;;20.10;99.90;;;;;;1948863;74;21063;-77
2021/08/15 00:46:55;;;;;;;7.53;6.75;;;20.10;99.90;;;;;;1948589;74;21095;-77
2021/08/15 00:49:22;;;;;;;13.05;7.45;;;20.10;99.90;;;;;;1937521;73;21140;-77
2021/08/15 00:51:48;;;;;;;8.25;7.40;;;20.10;99.90;;;;;;1934523;74;21183;-78
2021/08/15 00:54:14;;;;;;;11.78;7.80;;;20.00;99.90;;;;;;1947585;73;21140;-77
2021/08/15 00:56:40;;;;;;;8.28;7.30;;;20.10;99.90;;;;;;1949097;73;21063;-78
2021/08/15 00:59:06;;;;;;;10.48;8.38;;;20.00;99.90;;;;;;1949028;73;21125;-77
2021/08/15 01:01:32;;;;;;;13.95;9.08;;;20.00;99.90;;;;;;1936504;73;21114;-77
2021/08/15 01:04:03;;;;;;;9.65;7.87;;;20.00;99.90;;;;;;1942889;74;21106;-78
2021/08/15 01:06:26;;;;;;;12.10;7.97;;;20.00;99.90;;;;;;1949060;73;21083;-78
2021/08/15 01:08:52;;;;;;;8.43;7.62;;;19.90;99.90;;;;;;1948679;72;21166;-77
2021/08/15 01:11:18;;;;;;;8.80;7.60;;;19.90;99.90;;;;;;1948878;74;21098;-78
2021/08/15 01:13:44;;;;;;;10.80;8.10;;;19.90;99.90;;;;;;1948673;74;21165;-77
2021/08/15 01:16:11;;;;;;;10.90;8.70;;;19.90;99.90;;;;;;1948899;72;21074;-77
2021/08/15 01:18:37;;;;;;;10.90;7.62;;;19.80;99.90;;;;;;1948866;74;21148;-77
2021/08/15 01:21:03;;;;;;;8.55;7.62;;;19.80;99.90;;;;;;1948791;74;21172;-78
2021/08/15 01:23:29;;;;;;;9.30;7.15;;;19.80;99.90;;;;;;1948781;74;21198;-77
2021/08/15 01:25:55;;;;;;;12.15;7.75;;;19.80;99.90;;;;;;1948899;73;21063;-77
2021/08/15 01:28:21;;;;;;;9.65;8.15;;;19.80;99.90;;;;;;1948781;72;21059;-77
2021/08/15 01:30:47;;;;;;;11.22;7.67;;;19.80;99.90;;;;;;1948766;74;21166;-77
2021/08/15 01:33:13;;;;;;;8.03;7.22;;;19.70;99.90;;;;;;1948784;74;21076;-78
2021/08/15 01:35:40;;;;;;;14.73;8.03;;;19.70;99.90;;;;;;1948775;72;21072;-77
2021/08/15 01:38:06;;;;;;;12.93;8.53;;;19.60;99.90;;;;;;1948845;74;21129;-78
2021/08/15 01:40:32;;;;;;;8.78;7.92;;;19.60;99.90;;;;;;1948754;74;21535;-77
2021/08/15 01:42:58;;;;;;;11.65;8.83;;;19.60;99.90;;;;;;1948784;74;21558;-77
2021/08/15 01:45:24;;;;;;;11.43;8.78;;;19.50;99.90;;;;;;1948780;74;21590;-78
2021/08/15 01:47:50;;;;;;;11.38;8.50;;;19.50;99.90;;;;;;1948661;74;21060;-78
2021/08/15 01:50:16;;;;;;;11.95;8.93;;;19.50;99.90;;;;;;1948860;74;21055;-78
2021/08/15 01:52:43;;;;;;;11.60;9.50;;;19.50;99.90;;;;;;1948677;73;21088;-77
2021/08/15 01:55:09;;;;;;;10.18;7.92;;;19.50;99.90;;;;;;1948863;74;21028;-77
2021/08/15 01:57:35;;;;;;;10.80;8.13;;;19.50;99.90;;;;;;1948747;74;21152;-77
2021/08/15 02:00:01;;;;;;;12.75;8.33;;;19.50;99.90;;;;;;1948865;74;21058;-78
2021/08/15 02:02:27;;;;;;;10.32;8.53;;;19.50;99.90;;;;;;1948863;72;21068;-77
2021/08/15 02:04:53;;;;;;;10.03;8.10;;;19.40;99.90;;;;;;1948941;74;21071;-77
2021/08/15 02:07:19;;;;;;;11.15;8.75;;;19.40;99.90;;;;;;1948941;74;21071;-77
2021/08/15 02:09:45;;;;;;;10.88;8.93;;;19.40;99.90;;;;;;1948942;72;21062;-77
2021/08/15 02:12:12;;;;;;;11.75;8.53;;;19.30;99.90;;;;;;1949028;74;21058;-77
2021/08/15 02:14:38;;;;;;;9.68;8.10;;;19.20;99.90;;;;;;1948911;74;21059;-77
2021/08/15 02:17:04;;;;;;;9.03;7.90;;;19.20;99.90;;;;;;1948794;74;21059;-77
2021/08/15 02:19:30;;;;;;;14.07;8.68;;;19.20;99.90;;;;;;1948943;74;21024;-77
2021/08/15 02:21:56;;;;;;;10.43;8.48;;;19.20;99.90;;;;;;1948749;74;21092;-78
2021/08/15 02:24:22;;;;;;;8.75;7.85;;;19.20;99.90;;;;;;1948840;74;21087;-77
2021/08/15 02:26:48;;;;;;;9.98;8.05;;;19.20;99.90;;;;;;1948644;74;21243;-77
2021/08/15 02:29:15;;;;;;;8.95;8.08;;;19.10;99.90;;;;;;1948813;74;21079;-77
2021/08/15 02:31:41;;;;;;;9.40;8.50;;;19.10;99.90;;;;;;1948616;72;21518;-77
2021/08/15 02:34:07;;;;;;;8.88;7.83;;;19.10;99.90;;;;;;1948800;74;21613;-77
2021/08/15 02:36:33;;;;;;;11.10;8.18;;;19.10;99.90;;;;;;1948619;74;21087;-77
2021/08/15 02:38:59;;;;;;;11.33;8.53;;;19.10;99.90;;;;;;1948775;74;21241;-77
2021/08/15 02:41:25;;;;;;;16.80;8.85;;;19.10;99.90;;;;;;1948628;73;21141;-77
2021/08/15 02:43:51;;;;;;;9.83;8.43;;;19.00;99.90;;;;;;1948837;72;21169;-77
2021/08/15 02:46:17;;;;;;;12.95;8.50;;;19.00;99.90;;;;;;1948622;74;21083;-77
2021/08/15 02:48:43;;;;;;;11.60;8.75;;;19.00;99.90;;;;;;1948811;74;21087;-77
2021/08/15 02:51:10;;;;;;;9.35;8.43;;;18.90;99.90;;;;;;1948629;72;21096;-77
2021/08/15 02:53:36;;;;;;;12.65;9.08;;;18.90;99.90;;;;;;1948803;74;21103;-77
2021/08/15 02:56:03;;;;;;;11.73;8.18;;;18.90;99.90;;;;;;1948599;74;21059;-78
2021/08/15 02:58:29;;;;;;;9.23;8.18;;;18.90;99.90;;;;;;1950615;72;21104;-77
2021/08/15 03:00:55;;;;;;;10.90;9.10;;;18.90;99.90;;;;;;1944942;72;21064;-77
2021/08/15 03:03:21;;;;;;;11.03;8.28;;;18.90;99.90;;;;;;1950775;72;21459;-77
2021/08/15 03:05:48;;;;;;;9.83;7.80;;;18.90;99.90;;;;;;1948532;74;21520;-77
2021/08/15 03:08:14;;;;;;;9.45;8.28;;;18.90;99.90;;;;;;1948770;74;21059;-77
2021/08/15 03:10:40;;;;;;;12.10;9.03;;;18.90;99.90;;;;;;1948727;74;21079;-77
2021/08/15 03:13:06;;;;;;;9.45;8.43;;;18.90;99.90;;;;;;1948897;74;21144;-78
2021/08/15 03:15:32;;;;;;;11.55;7.95;;;18.90;99.90;;;;;;1948996;72;21086;-77
2021/08/15 03:17:59;;;;;;;9.35;8.45;;;18.90;99.90;;;;;;1950200;73;21159;-77
2021/08/15 03:20:27;;;;;;;9.28;8.15;;;18.90;99.90;;;;;;1947909;72;21180;-77
2021/08/15 03:22:52;;;;;;;9.70;8.53;;;18.90;99.90;;;;;;1952084;73;21068;-77
2021/08/15 03:25:19;;;;;;;9.60;8.15;;;18.90;99.90;;;;;;1950247;73;21117;-77
2021/08/15 03:27:45;;;;;;;11.33;9.08;;;18.80;99.90;;;;;;1952070;72;21063;-77
2021/08/15 03:30:11;;;;;;;11.08;9.05;;;18.90;99.90;;;;;;1917491;74;21059;-77
2021/08/15 03:32:37;;;;;;;11.78;9.25;;;18.80;99.90;;;;;;1949396;73;21059;-77
2021/08/15 03:35:03;;;;;;;12.85;9.43;;;18.90;99.90;;;;;;1952024;73;21136;-77
2021/08/15 03:37:29;;;;;;;13.75;9.20;;;18.80;99.90;;;;;;1952160;73;21111;-77
2021/08/15 03:39:55;;;;;;;13.05;8.78;;;18.80;99.90;;;;;;1951972;73;21061;-77
2021/08/15 03:42:21;;;;;;;13.70;8.08;;;18.70;99.90;;;;;;1952095;73;21062;-77
2021/08/15 03:44:48;;;;;;;13.85;8.78;;;18.70;99.90;;;;;;1952079;73;21078;-77
2021/08/15 03:47:14;;;;;;;10.98;8.93;;;18.70;99.90;;;;;;1952077;73;21028;-77
2021/08/15 03:49:40;;;;;;;11.22;8.93;;;18.70;99.90;;;;;;1952074;72;21070;-77
2021/08/15 03:52:06;;;;;;;11.63;9.28;;;18.70;99.90;;;;;;1952089;73;21071;-77
2021/08/15 03:54:32;;;;;;;14.98;8.65;;;18.70;99.90;;;;;;1952081;73;21136;-77
2021/08/15 03:56:58;;;;;;;14.75;9.10;;;18.70;99.90;;;;;;1952061;73;21067;-77
2021/08/15 03:59:24;;;;;;;12.68;9.10;;;18.70;99.90;;;;;;1952033;73;21034;-77
2021/08/15 04:01:50;;;;;;;13.80;10.08;;;18.60;99.90;;;;;;1952197;72;21145;-77
2021/08/15 04:04:17;;;;;;;10.78;8.98;;;18.60;99.90;;;;;;1951967;73;21055;-77
2021/08/15 04:06:43;;;;;;;11.65;8.90;;;18.60;99.90;;;;;;1952186;73;21058;-77
2021/08/15 04:09:09;;;;;;;15.60;9.78;;;18.60;99.90;;;;;;1951959;73;21168;-77
2021/08/15 04:11:35;;;;;;;14.43;9.65;;;18.60;99.90;;;;;;1952161;73;21141;-77
2021/08/15 04:14:01;;;;;;;12.65;9.15;;;18.60;99.90;;;;;;1951975;73;21031;-77
2021/08/15 04:16:27;;;;;;;15.43;9.65;;;18.60;99.90;;;;;;1952245;72;21070;-77
2021/08/15 04:18:55;;;;;;;10.58;9.30;;;18.60;99.90;;;;;;1951934;73;21062;-77
2021/08/15 04:21:21;;;;;;;11.03;9.45;;;18.60;99.90;;;;;;1952109;73;21515;-77
2021/08/15 04:23:47;;;;;;;13.60;9.60;;;18.60;99.90;;;;;;1951963;73;21483;-77
2021/08/15 04:26:13;;;;;;;17.40;8.93;;;18.60;99.90;;;;;;1952131;73;21483;-77
2021/08/15 04:28:39;;;;;;;10.88;9.75;;;18.60;99.90;;;;;;1952167;73;21601;-77
2021/08/15 04:31:06;;;;;;;11.15;9.38;;;18.60;99.90;;;;;;1952144;73;21028;-77
2021/08/15 04:33:32;;;;;;;11.60;8.93;;;18.60;99.90;;;;;;1951918;73;21120;-77
2021/08/15 04:35:58;;;;;;;11.03;9.18;;;18.50;99.90;;;;;;1952144;73;21058;-77
2021/08/15 04:38:25;;;;;;;15.23;8.90;;;18.60;99.90;;;;;;1951906;73;21140;-77
2021/08/15 04:40:51;;;;;;;10.65;8.68;;;18.60;99.90;;;;;;1952149;73;21035;-77
2021/08/15 04:43:17;;;;;;;9.73;8.83;;;18.60;99.90;;;;;;1952070;73;21059;-77
2021/08/15 04:45:45;;;;;;;10.15;8.60;;;18.60;99.90;;;;;;1952035;73;21552;-77
2021/08/15 04:48:11;;;;;;;13.00;9.10;;;18.60;99.90;;;;;;1951952;72;21177;-77
2021/08/15 04:50:37;;;;;;;14.95;9.48;;;18.60;99.90;;;;;;1952137;73;21071;-77
2021/08/15 04:53:03;;;;;;;14.33;9.03;;;18.60;99.90;;;;;;1951955;73;21062;-77
2021/08/15 04:55:29;;;;;;;11.38;9.15;;;18.60;99.90;;;;;;1952178;73;21195;-77
2021/08/15 04:57:56;;;;;;;11.43;9.08;;;18.70;99.90;;;;;;1951924;73;21070;-77
2021/08/15 05:00:22;;;;;;;11.08;9.78;;;18.70;99.90;;;;;;1952280;73;21063;-77
2021/08/15 05:02:48;;;;;;;11.15;9.00;;;18.70;99.90;;;;;;1951954;73;21062;-77
2021/08/15 05:05:14;;;;;;;11.55;9.43;;;18.70;99.90;;;;;;1952386;73;21147;-77
2021/08/15 05:07:40;;;;;;;13.08;9.38;;;18.80;99.90;;;;;;1951926;73;21066;-77
2021/08/15 05:10:06;;;;;;;9.70;8.70;;;18.90;99.90;;;;;;1952316;72;21066;-78
2021/08/15 05:12:32;;;;;;;12.07;8.60;;;18.90;99.90;;;;;;1951960;73;21066;-77
2021/08/15 05:14:59;;;;;;;12.33;8.70;;;18.90;99.90;;;;;;1952133;72;21097;-77
2021/08/15 05:17:25;;;;;;;9.80;8.58;;;19.00;99.90;;;;;;1951957;73;21055;-78
2021/08/15 05:19:51;;;;;;;9.23;8.23;;;19.10;99.90;;;;;;1952141;73;21031;-77
2021/08/15 05:22:17;;;;;;;9.28;7.90;;;19.10;99.90;;;;;;1951972;73;21062;-77
2021/08/15 05:24:43;;;;;;;11.48;8.38;;;19.20;99.90;;;;;;1952138;73;21059;-77
2021/08/15 05:27:09;;;;;;;10.23;8.95;;;19.20;99.90;;;;;;1951982;73;21114;-77
2021/08/15 05:29:35;;;;;;;11.90;8.58;;;19.20;99.90;;;;;;1952202;73;21062;-77
2021/08/15 05:32:01;;;;;;;13.50;8.60;;;19.30;99.90;;;;;;1952039;73;21152;-78
2021/08/15 05:34:28;;;;;;;9.18;8.15;;;19.30;99.90;;;;;;1952036;73;21071;-78
2021/08/15 05:36:54;;;;;;;10.68;8.45;;;19.30;99.90;;;;;;1952016;72;21027;-78
2021/08/15 05:39:20;;;;;;;11.60;8.78;;;19.30;99.90;;;;;;1952082;73;21132;-78
2021/08/15 05:41:46;;;;;;;10.05;8.53;;;19.40;99.90;;;;;;1951956;73;21541;-76
2021/08/15 05:44:12;;;;;;;13.35;9.45;;;19.40;99.90;;;;;;1951923;73;21431;-78
2021/08/15 05:46:38;;;;;;;10.10;8.90;;;19.40;99.90;;;;;;1952096;73;21547;-78
2021/08/15 05:49:05;;;;;;;12.88;8.98;;;19.40;99.90;;;;;;1952015;73;21407;-75
2021/08/15 05:51:32;;;;;;;10.65;9.08;;;19.60;99.90;;;;;;1952113;73;21140;-77
2021/08/15 05:53:58;;;;;;;9.03;8.00;;;19.70;99.90;;;;;;1952193;72;21063;-78
2021/08/15 05:56:24;;;;;;;11.05;9.95;;;19.80;99.90;;;;;;1952232;73;21045;-77
2021/08/15 05:58:50;;;;;;;14.20;9.10;;;19.80;99.90;;;;;;1952210;73;21114;-75
2021/08/15 06:01:16;;;;;;;13.30;9.68;;;19.90;99.90;;;;;;1951939;73;21058;-76
2021/08/15 06:03:42;;;;;;;12.55;9.05;;;20.00;99.90;;;;;;1950190;73;21036;-75
2021/08/15 06:06:08;;;;;;;11.03;9.40;;;20.20;99.90;;;;;;1951878;72;21140;-76
2021/08/15 06:08:34;;;;;;;10.65;7.95;;;20.30;99.90;;;;;;1952001;73;21059;-75
2021/08/15 06:11:02;;;;;;;10.05;8.58;;;20.40;99.90;;;;;;1952047;73;21090;-75
2021/08/15 06:13:28;;;;;;;10.75;8.85;;;20.60;99.90;;;;;;1952009;73;21113;-77
2021/08/15 06:15:54;;;;;;;21.87;8.80;;;20.70;99.90;;;;;;1945520;73;21074;-75
2021/08/15 06:18:20;;;;;;;10.18;8.43;;;20.90;99.90;;;;;;1952015;73;21144;-75
2021/08/15 06:20:47;;;;;;;10.23;8.25;;;21.00;99.90;;;;;;1951857;73;21436;-77
2021/08/15 06:23:13;;;;;;;14.83;8.68;;;21.10;99.90;;;;;;1951929;73;21032;-76
2021/08/15 06:25:39;;;;;;;9.33;8.43;;;21.10;99.90;;;;;;1951902;73;21137;-76
2021/08/15 06:28:05;;;;;;;12.30;8.98;;;21.20;99.90;;;;;;1951994;73;21066;-74
2021/08/15 06:30:31;;;;;;;13.05;8.88;;;21.30;99.90;;;;;;1951784;72;21066;-74
2021/08/15 06:32:57;;;;;;;18.73;8.83;;;21.30;99.90;;;;;;1951942;73;21063;-76
2021/08/15 06:35:23;;;;;;;11.88;8.10;;;21.30;99.90;;;;;;1951738;73;21062;-75
2021/08/15 06:37:54;;;;;;;10.43;8.20;;;21.50;99.90;;;;;;1951935;73;21106;-75
2021/08/15 06:40:17;;;;;;;12.53;8.43;;;21.60;99.90;;;;;;1951505;73;21480;-76
2021/08/15 06:42:44;;;;;;;12.30;8.75;;;21.80;99.90;;;;;;1952010;73;21486;-76
2021/08/15 06:45:10;;;;;;;12.00;8.58;;;21.90;99.90;;;;;;1951872;73;21110;-76
2021/08/15 06:47:36;;;;;;;11.40;8.98;;;22.00;99.90;;;;;;1952012;73;21063;-78
2021/08/15 06:50:03;;;;;;;9.78;8.35;;;21.90;99.90;;;;;;1952008;73;21055;-77
2021/08/15 06:52:29;;;;;;;12.37;8.50;;;21.90;99.90;;;;;;1951906;73;21502;-77
2021/08/15 06:54:55;;;;;;;15.23;8.55;;;21.90;99.90;;;;;;1952115;73;21544;-77
2021/08/15 06:57:21;;;;;;;10.43;7.80;;;21.90;99.90;;;;;;1952074;73;21478;-76
2021/08/15 06:59:47;;;;;;;14.93;8.95;;;22.00;99.90;;;;;;1951865;73;21456;-75
2021/08/15 07:02:14;;;;;;;12.90;8.33;;;22.00;99.90;;;;;;1956822;73;21063;-74
2021/08/15 07:04:40;;;;;;;11.73;8.40;;;22.20;99.90;;;;;;1951992;73;21110;-75
2021/08/15 07:07:06;;;;;;;13.08;8.78;;;22.40;99.90;;;;;;1952013;73;21062;-75
2021/08/15 07:09:32;;;;;;;11.90;7.72;;;22.50;99.90;;;;;;1951965;73;21027;-75
2021/08/15 07:11:58;;;;;;;11.10;7.67;;;22.40;99.90;;;;;;1951992;73;21160;-75
2021/08/15 07:14:25;;;;;;;11.43;7.00;;;22.50;99.90;;;;;;1952033;73;21132;-75
2021/08/15 07:16:53;;;;;;;9.08;7.60;;;22.80;99.90;;;;;;1951886;73;21502;-75
2021/08/15 07:19:19;;;;;;;10.35;7.85;;;23.10;99.90;;;;;;1951847;73;21074;-75
2021/08/15 07:21:45;;;;;;;10.63;7.78;;;23.00;99.90;;;;;;1952037;73;21050;-75
2021/08/15 07:24:11;;;;;;;13.00;8.00;;;23.20;99.90;;;;;;1951896;73;21144;-74
2021/08/15 07:26:37;;;;;;;18.85;7.70;;;23.10;99.90;;;;;;1952086;73;21162;-75
2021/08/15 07:29:04;;;;;;;14.03;7.53;;;23.00;99.90;;;;;;1951854;73;21059;-75
2021/08/15 07:31:30;;;;;;;11.20;7.60;;;23.50;99.90;;;;;;1952075;72;21062;-74
2021/08/15 07:33:56;;;;;;;9.65;7.17;;;23.60;99.90;;;;;;1951948;73;21031;-74
2021/08/15 07:36:24;;;;;;;9.90;7.05;;;23.90;99.90;;;;;;1954451;73;21049;-74
2021/08/15 07:38:50;;;;;;;13.78;6.62;;;24.00;99.90;;;;;;1955895;73;21097;-75
2021/08/15 07:41:16;;;;;;;10.93;6.70;;;24.50;99.90;;;;;;1953474;72;21027;-75
2021/08/15 07:43:42;;;;;;;13.30;5.95;;;24.70;99.90;;;;;;1951963;73;21145;-73
2021/08/15 07:46:13;;;;;;;12.13;5.97;;;25.50;99.90;;;;;;1952044;73;21140;-79
2021/08/15 07:48:36;;;;;;;11.22;6.03;;;26.40;99.90;;;;;;1951969;73;21047;-78
2021/08/15 07:51:02;;;;;;;12.55;5.72;;;27.00;99.90;;;;;;1951985;73;21132;-79
2021/08/15 07:53:28;;;;;;;8.63;5.67;;;27.50;99.90;;;;;;1951960;72;21028;-79
2021/08/15 07:55:55;;;;;;;9.48;6.35;;;27.40;99.90;;;;;;1952007;73;21025;-80
2021/08/15 07:58:21;;;;;;;10.23;5.83;;;27.10;99.90;;;;;;1951901;73;21102;-78
2021/08/15 08:00:47;;;;;;;8.08;6.10;;;27.00;99.90;;;;;;1951904;73;21144;-79
2021/08/15 08:03:13;;;;;;;12.18;6.00;;;27.00;99.90;;;;;;1952039;73;21027;-80
2021/08/15 08:05:39;;;;;;;8.03;5.83;;;26.70;99.90;;;;;;1951970;73;21059;-79
2021/08/15 08:08:05;;;;;;;7.22;4.92;;;27.00;99.90;;;;;;1951950;73;21067;-79
2021/08/15 08:10:31;;;;;;;7.50;5.62;;;27.60;99.90;;;;;;1951885;72;21062;-77
2021/08/15 08:12:57;;;;;;;7.15;5.35;;;27.60;99.90;;;;;;1952054;73;21024;-80
2021/08/15 08:15:23;;;;;;;12.63;4.85;;;28.40;99.90;;;;;;1952016;73;21043;-79
2021/08/15 08:17:50;;;;;;;7.92;5.37;;;28.50;99.90;;;;;;1951851;73;21172;-79
2021/08/15 08:20:17;;;;;;;9.73;5.58;;;27.90;99.90;;;;;;1952033;72;21493;-78
2021/08/15 08:22:43;;;;;;;7.45;5.37;;;26.80;99.90;;;;;;1952013;73;21067;-80
2021/08/15 08:25:10;;;;;;;14.07;6.20;;;27.20;99.90;;;;;;1952146;73;21058;-78
2021/08/15 08:27:36;;;;;;;21.97;5.08;;;27.80;99.90;;;;;;1952112;72;21456;-78
2021/08/15 08:30:02;;;;;;;6.75;5.20;;;28.50;99.90;;;;;;1951867;73;21431;-78
2021/08/15 08:32:28;;;;;;;8.68;5.03;;;28.70;99.90;;;;;;1952015;73;21472;-78
2021/08/15 08:34:54;;;;;;;11.83;5.15;;;28.90;99.90;;;;;;1951954;73;21474;-78
2021/08/15 08:37:21;;;;;;;6.47;5.17;;;29.10;99.90;;;;;;1951929;73;21470;-78
2021/08/15 08:39:47;;;;;;;5.85;5.20;;;29.30;99.90;;;;;;1939150;72;21152;-77
2021/08/15 08:42:14;;;;;;;10.35;4.50;;;28.90;99.90;;;;;;1946856;73;21136;-78
2021/08/15 08:44:40;;;;;;;7.97;5.22;;;28.90;99.90;;;;;;1952057;72;21062;-78
2021/08/15 08:47:06;;;;;;;7.65;4.92;;;29.00;99.90;;;;;;1948546;73;21108;-78
2021/08/15 08:49:32;;;;;;;5.85;5.17;;;28.90;99.90;;;;;;1938819;74;21051;-78
2021/08/15 08:51:58;;;;;;;12.07;5.75;;;28.60;99.90;;;;;;1948603;72;21200;-78
2021/08/15 08:54:26;;;;;;;6.33;5.08;;;28.60;99.90;;;;;;1948616;73;21092;-78
2021/08/15 08:56:52;;;;;;;7.42;4.83;;;28.10;99.90;;;;;;1948597;72;21275;-78
2021/08/15 08:59:18;;;;;;;8.68;4.87;;;28.00;99.90;;;;;;1948653;74;21063;-78
2021/08/15 09:01:44;;;;;;;6.83;4.87;;;28.30;99.90;;;;;;1948708;74;21055;-78
2021/08/15 09:04:10;;;;;;;14.80;5.67;;;28.80;99.90;;;;;;1948712;74;21163;-78
2021/08/15 09:06:36;;;;;;;8.53;5.45;;;28.80;99.90;;;;;;1948615;74;21228;-80
2021/08/15 09:09:02;;;;;;;8.95;5.25;;;29.30;99.90;;;;;;1948763;72;21059;-78
2021/08/15 09:11:29;;;;;;;8.00;4.95;;;29.50;99.90;;;;;;1948723;74;21059;-78
2021/08/15 09:13:55;;;;;;;8.58;4.80;;;29.80;99.90;;;;;;1948634;73;21481;-78
2021/08/15 09:16:21;;;;;;;6.80;4.55;;;30.50;99.90;;;;;;1948652;74;21621;-78
2021/08/15 09:18:47;;;;;;;5.15;4.17;;;30.40;99.90;;;;;;1948558;74;21624;-78
2021/08/15 09:21:13;;;;;;;5.25;4.08;;;30.80;99.90;;;;;;1948650;74;21585;-75
2021/08/15 09:23:40;;;;;;;7.28;4.58;;;31.40;99.90;;;;;;1948626;74;21065;-78
2021/08/15 09:26:06;;;;;;;9.60;4.87;;;31.40;99.90;;;;;;1948615;74;21031;-78
2021/08/15 09:28:32;;;;;;;9.40;4.67;;;30.90;99.90;;;;;;1948690;74;21054;-78
2021/08/15 09:30:59;;;;;;;7.90;4.22;;;30.80;99.90;;;;;;1948708;74;21129;-77
2021/08/15 09:33:25;;;;;;;7.95;4.30;;;30.20;99.90;;;;;;1948655;74;21527;-78
2021/08/15 09:35:51;;;;;;;7.25;4.47;;;30.30;99.90;;;;;;1948619;74;21567;-78
2021/08/15 09:38:18;;;;;;;16.50;4.85;;;29.90;99.90;;;;;;1948666;74;21028;-78
2021/08/15 09:40:44;;;;;;;7.08;4.40;;;29.40;99.90;;;;;;1948661;74;21054;-78
2021/08/15 09:43:10;;;;;;;5.78;4.72;;;29.10;99.90;;;;;;1948789;74;21063;-78
2021/08/15 09:45:36;;;;;;;8.08;4.58;;;29.50;99.90;;;;;;1948708;74;21059;-77
2021/08/15 09:48:02;;;;;;;9.63;4.75;;;29.50;99.90;;;;;;1948536;72;21488;-78
2021/08/15 09:50:28;;;;;;;7.70;4.28;;;30.20;99.90;;;;;;1948686;74;21368;-77
2021/08/15 09:52:55;;;;;;;4.72;4.22;;;30.60;99.90;;;;;;1948752;74;21475;-78
2021/08/15 09:55:21;;;;;;;7.28;4.58;;;30.90;99.90;;;;;;1948598;72;21515;-78
2021/08/15 09:57:47;;;;;;;20.32;4.33;;;31.00;99.90;;;;;;1948908;74;21476;-78
2021/08/15 10:00:13;;;;;;;7.17;4.33;;;30.10;99.90;;;;;;1948567;72;21498;-78
2021/08/15 10:02:41;;;;;;;6.05;4.28;;;29.80;99.90;;;;;;1948706;74;21605;-78
2021/08/15 10:05:08;;;;;;;5.28;4.17;;;29.70;99.90;;;;;;1948549;73;21112;-77
2021/08/15 10:07:34;;;;;;;6.72;4.12;;;29.50;99.90;;;;;;1948704;73;21103;-77
2021/08/15 10:10:00;;;;;;;10.38;4.80;;;29.50;99.90;;;;;;1948669;73;21123;-76
2021/08/15 10:12:27;;;;;;;8.68;4.30;;;29.90;99.90;;;;;;1948731;74;21072;-77
2021/08/15 10:14:53;;;;;;;16.07;5.03;;;30.80;99.90;;;;;;1948671;72;21496;-78
2021/08/15 10:17:19;;;;;;;5.40;4.45;;;30.90;99.90;;;;;;1948646;74;21554;-78
2021/08/15 10:19:45;;;;;;;11.75;4.55;;;30.50;99.90;;;;;;1948377;72;21519;-77
2021/08/15 10:22:13;;;;;;;7.37;4.00;;;30.60;99.90;;;;;;1948680;73;21562;-78
2021/08/15 10:24:39;;;;;;;7.58;4.75;;;30.90;99.90;;;;;;1948246;74;21115;-75
2021/08/15 10:27:05;;;;;;;8.35;4.42;;;30.70;99.90;;;;;;1948998;74;21067;-79
2021/08/15 10:29:32;;;;;;;9.48;5.05;;;30.80;99.90;;;;;;1949145;74;21176;-75
2021/08/15 10:31:59;;;;;;;9.33;5.00;;;31.10;99.90;;;;;;1949244;72;21091;-76
2021/08/15 10:34:25;;;;;;;6.80;4.65;;;30.70;99.90;;;;;;1949028;74;21185;-74
2021/08/15 10:36:51;;;;;;;8.88;5.33;;;30.30;99.90;;;;;;1949150;73;21146;-75
2021/08/15 10:39:17;;;;;;;12.70;4.85;;;30.10;99.90;;;;;;1948986;74;21031;-73
2021/08/15 10:41:43;;;;;;;7.35;4.70;;;30.70;99.90;;;;;;1949064;72;21071;-72
2021/08/15 10:44:09;;;;;;;11.97;4.70;;;31.40;99.90;;;;;;1949151;74;21040;-73
2021/08/15 10:46:35;;;;;;;6.40;4.50;;;32.00;99.90;;;;;;1948993;73;21071;-73
2021/08/15 10:49:02;;;;;;;6.97;4.70;;;32.30;99.90;;;;;;1948940;74;21087;-72
2021/08/15 10:51:28;;;;;;;6.10;4.53;;;32.60;99.90;;;;;;1948888;72;21108;-72
2021/08/15 10:53:54;;;;;;;7.55;4.70;;;32.90;99.90;;;;;;1948842;72;21511;-74
2021/08/15 10:56:20;;;;;;;10.10;4.55;;;33.50;99.90;;;;;;1948832;74;21540;-73
2021/08/15 10:58:47;;;;;;;8.85;4.40;;;34.00;99.90;;;;;;1948645;74;21484;-74
2021/08/15 11:01:13;;;;;;;7.33;4.72;;;34.10;99.90;;;;;;1948671;74;21103;-74
2021/08/15 11:03:39;;;;;;;8.30;4.42;;;33.70;99.90;;;;;;1932857;73;21070;-75
2021/08/15 11:06:06;;;;;;;9.60;5.00;;;34.10;99.90;;;;;;1951459;73;21031;-74
2021/08/15 11:08:32;;;;;;;8.83;4.65;;;33.60;99.90;;;;;;1951511;73;21183;-72
2021/08/15 11:10:58;;;;;;;12.78;5.03;;;32.60;99.90;;;;;;1951699;72;21063;-72
2021/08/15 11:13:24;;;;;;;10.03;7.80;;;31.50;99.90;;;;;;1952002;73;21140;-73
2021/08/15 11:15:50;;;;;;;8.18;4.85;;;31.30;99.90;;;;;;1951759;73;21467;-73
2021/08/15 11:18:18;;;;;;;6.37;4.58;;;31.00;99.90;;;;;;1951935;72;21554;-73
2021/08/15 11:20:47;;;;;;;12.60;5.05;;;31.00;99.90;;;;;;1943380;73;21086;-72
2021/08/15 11:23:12;;;;;;;8.23;4.40;;;31.60;99.90;;;;;;1946068;73;21224;-73
2021/08/15 11:25:38;;;;;;;9.38;5.05;;;32.30;99.90;;;;;;1937021;73;21133;-72
2021/08/15 11:28:04;;;;;;;13.08;4.97;;;32.60;99.90;;;;;;1951868;73;21148;-72
2021/08/15 11:30:30;;;;;;;10.08;4.65;;;32.50;99.90;;;;;;1951814;73;21071;-72
2021/08/15 11:32:57;;;;;;;7.58;4.75;;;32.30;99.90;;;;;;1922446;73;21152;-72
2021/08/15 11:35:23;;;;;;;9.50;5.25;;;31.90;99.90;;;;;;1943158;74;21520;-73
2021/08/15 11:37:49;;;;;;;6.50;4.75;;;31.90;99.90;;;;;;1948782;74;21475;-73
2021/08/15 11:40:15;;;;;;;15.03;4.78;;;31.60;99.90;;;;;;1948649;74;21431;-73
2021/08/15 11:42:41;;;;;;;7.28;4.47;;;31.60;99.90;;;;;;1948978;72;21622;-73
2021/08/15 11:45:08;;;;;;;7.95;4.62;;;31.60;99.90;;;;;;1948775;74;21439;-73
2021/08/15 11:47:34;;;;;;;7.15;4.70;;;31.60;99.90;;;;;;1948553;73;21142;-73
2021/08/15 11:50:00;;;;;;;6.47;4.67;;;31.30;99.90;;;;;;1948774;74;21075;-73
2021/08/15 11:52:26;;;;;;;8.43;4.45;;;31.20;99.90;;;;;;1948606;73;21096;-73
2021/08/15 11:54:53;;;;;;;9.08;4.70;;;31.30;99.90;;;;;;1948554;74;21175;-74
2021/08/15 11:57:19;;;;;;;9.60;4.70;;;30.90;99.90;;;;;;1948594;74;21520;-73
2021/08/15 11:59:45;;;;;;;7.05;4.55;;;30.40;99.90;;;;;;1948726;74;21518;-73
2021/08/15 12:02:12;;;;;;;10.95;4.17;;;30.20;99.90;;;;;;1948595;74;21578;-74
2021/08/15 12:04:38;;;;;;;8.55;4.58;;;30.20;99.90;;;;;;1948764;74;21424;-74
2021/08/15 12:07:04;;;;;;;9.20;4.53;;;30.00;99.90;;;;;;1948648;74;21557;-74
2021/08/15 12:09:30;;;;;;;7.25;4.17;;;29.90;99.90;;;;;;1948772;74;21066;-75
2021/08/15 12:11:57;;;;;;;7.47;4.30;;;29.80;99.90;;;;;;1948628;74;21169;-74
2021/08/15 12:14:23;;;;;;;8.48;4.60;;;29.70;99.90;;;;;;1948595;72;21112;-75
2021/08/15 12:16:49;;;;;;;5.40;4.50;;;29.60;99.90;;;;;;1948773;74;21552;-75
2021/08/15 12:19:15;;;;;;;18.00;4.42;;;29.50;99.90;;;;;;1948572;73;21424;-75
2021/08/15 12:21:41;;;;;;;6.12;4.20;;;29.50;99.90;;;;;;1948904;74;21475;-74
2021/08/15 12:24:07;;;;;;;8.80;4.55;;;29.30;99.90;;;;;;1948698;74;21503;-73
2021/08/15 12:26:33;;;;;;;6.03;4.75;;;29.30;99.90;;;;;;1948702;74;21165;-74
2021/08/15 12:28:59;;;;;;;9.20;4.35;;;29.30;99.90;;;;;;1948868;74;21136;-73
2021/08/15 12:31:26;;;;;;;10.15;4.70;;;29.20;99.90;;;;;;1948695;74;21066;-74
2021/08/15 12:33:52;;;;;;;8.45;4.97;;;28.80;99.90;;;;;;1948779;73;21158;-72